sensor_id;sensor_type;location;lat;lon;timestamp;temperature;humidity
55777;DHT22;54079;44.540;18.784;2023-05-23T00:00:56;14.80;95.90
55777;DHT22;54079;44.540;18.784;2023-05-23T00:03:23;14.80;95.80
55777;DHT22;54079;44.540;18.784;2023-05-23T00:05:49;14.70;95.20
55777;DHT22;54079;44.540;18.784;2023-05-23T00:08:16;14.60;96.10
55777;DHT22;54079;44.540;18.784;2023-05-23T00:10:42;14.50;97.20
55777;DHT22;54079;44.540;18.784;2023-05-23T00:13:09;14.50;96.70
55777;DHT22;54079;44.540;18.784;2023-05-23T00:15:37;14.50;96.90
55777;DHT22;54079;44.540;18.784;2023-05-23T00:18:06;14.50;96.80
55777;DHT22;54079;44.540;18.784;2023-05-23T00:20:34;14.60;95.90
55777;DHT22;54079;44.540;18.784;2023-05-23T00:23:01;14.60;95.70
55777;DHT22;54079;44.540;18.784;2023-05-23T00:25:28;14.60;95.70
55777;DHT22;54079;44.540;18.784;2023-05-23T00:27:59;14.50;95.60
55777;DHT22;54079;44.540;18.784;2023-05-23T00:30:27;14.50;96.00
55777;DHT22;54079;44.540;18.784;2023-05-23T00:32:53;14.40;96.20
55777;DHT22;54079;44.540;18.784;2023-05-23T00:35:20;14.20;96.90
55777;DHT22;54079;44.540;18.784;2023-05-23T00:37:46;14.30;96.80
55777;DHT22;54079;44.540;18.784;2023-05-23T00:40:15;14.30;97.10
55777;DHT22;54079;44.540;18.784;2023-05-23T00:42:41;14.30;97.30
55777;DHT22;54079;44.540;18.784;2023-05-23T00:45:07;14.30;97.10
55777;DHT22;54079;44.540;18.784;2023-05-23T00:47:33;14.30;97.30
55777;DHT22;54079;44.540;18.784;2023-05-23T00:49:59;14.30;98.10
55777;DHT22;54079;44.540;18.784;2023-05-23T00:52:25;14.40;98.00
55777;DHT22;54079;44.540;18.784;2023-05-23T00:54:51;14.30;97.30
55777;DHT22;54079;44.540;18.784;2023-05-23T00:57:17;14.10;98.20
55777;DHT22;54079;44.540;18.784;2023-05-23T00:59:44;14.20;99.20
55777;DHT22;54079;44.540;18.784;2023-05-23T01:02:11;14.30;99.50
55777;DHT22;54079;44.540;18.784;2023-05-23T01:04:38;14.30;99.00
55777;DHT22;54079;44.540;18.784;2023-05-23T01:07:04;14.20;98.20
55777;DHT22;54079;44.540;18.784;2023-05-23T01:09:31;14.00;99.60
55777;DHT22;54079;44.540;18.784;2023-05-23T01:15:03;13.80;99.90
55777;DHT22;54079;44.540;18.784;2023-05-23T01:20:12;13.80;99.90
55777;DHT22;54079;44.540;18.784;2023-05-23T01:22:59;13.80;99.90
55777;DHT22;54079;44.540;18.784;2023-05-23T01:25:49;13.70;99.90
55777;DHT22;54079;44.540;18.784;2023-05-23T01:28:28;13.60;99.90
55777;DHT22;54079;44.540;18.784;2023-05-23T01:30:57;13.80;99.90
55777;DHT22;54079;44.540;18.784;2023-05-23T01:33:26;13.90;99.90
55777;DHT22;54079;44.540;18.784;2023-05-23T01:35:55;13.90;99.90
55777;DHT22;54079;44.540;18.784;2023-05-23T01:38:22;14.00;99.90
55777;DHT22;54079;44.540;18.784;2023-05-23T01:40:48;13.90;99.90
55777;DHT22;54079;44.540;18.784;2023-05-23T01:43:14;14.00;99.90
55777;DHT22;54079;44.540;18.784;2023-05-23T01:45:41;14.00;99.90
55777;DHT22;54079;44.540;18.784;2023-05-23T01:48:07;13.90;99.90
55777;DHT22;54079;44.540;18.784;2023-05-23T01:50:34;13.70;99.90
55777;DHT22;54079;44.540;18.784;2023-05-23T01:53:00;13.70;99.90
55777;DHT22;54079;44.540;18.784;2023-05-23T01:55:26;13.80;99.90
55777;DHT22;54079;44.540;18.784;2023-05-23T01:57:56;13.70;99.90
55777;DHT22;54079;44.540;18.784;2023-05-23T02:00:24;13.60;99.90
55777;DHT22;54079;44.540;18.784;2023-05-23T02:02:50;13.60;99.90
55777;DHT22;54079;44.540;18.784;2023-05-23T02:05:16;13.20;99.90
55777;DHT22;54079;44.540;18.784;2023-05-23T02:07:42;13.10;99.90
55777;DHT22;54079;44.540;18.784;2023-05-23T02:10:08;13.20;99.90
55777;DHT22;54079;44.540;18.784;2023-05-23T02:12:34;13.40;99.90
55777;DHT22;54079;44.540;18.784;2023-05-23T02:15:00;13.50;99.90
55777;DHT22;54079;44.540;18.784;2023-05-23T02:17:26;13.60;99.90
55777;DHT22;54079;44.540;18.784;2023-05-23T02:19:52;13.50;99.90
55777;DHT22;54079;44.540;18.784;2023-05-23T02:22:22;13.60;99.90
55777;DHT22;54079;44.540;18.784;2023-05-23T02:24:49;13.60;99.90
55777;DHT22;54079;44.540;18.784;2023-05-23T02:27:15;13.60;99.90
55777;DHT22;54079;44.540;18.784;2023-05-23T02:29:41;13.60;99.90
55777;DHT22;54079;44.540;18.784;2023-05-23T02:32:07;13.60;99.90
55777;DHT22;54079;44.540;18.784;2023-05-23T02:34:33;13.60;99.90
55777;DHT22;54079;44.540;18.784;2023-05-23T02:36:59;13.60;99.90
55777;DHT22;54079;44.540;18.784;2023-05-23T02:39:25;13.50;99.90
55777;DHT22;54079;44.540;18.784;2023-05-23T02:41:51;13.50;99.90
55777;DHT22;54079;44.540;18.784;2023-05-23T02:44:17;13.60;99.90
55777;DHT22;54079;44.540;18.784;2023-05-23T02:46:45;13.50;99.90
55777;DHT22;54079;44.540;18.784;2023-05-23T02:49:11;13.50;99.90
55777;DHT22;54079;44.540;18.784;2023-05-23T02:51:37;13.50;99.90
55777;DHT22;54079;44.540;18.784;2023-05-23T02:54:03;13.50;99.90
55777;DHT22;54079;44.540;18.784;2023-05-23T02:56:29;13.60;99.90
55777;DHT22;54079;44.540;18.784;2023-05-23T02:58:55;13.50;99.90
55777;DHT22;54079;44.540;18.784;2023-05-23T03:01:21;13.60;99.90
55777;DHT22;54079;44.540;18.784;2023-05-23T03:03:47;13.50;99.90
55777;DHT22;54079;44.540;18.784;2023-05-23T03:06:13;13.50;99.90
55777;DHT22;54079;44.540;18.784;2023-05-23T03:08:42;13.40;99.90
55777;DHT22;54079;44.540;18.784;2023-05-23T03:11:08;13.50;99.90
55777;DHT22;54079;44.540;18.784;2023-05-23T03:13:34;13.50;99.90
55777;DHT22;54079;44.540;18.784;2023-05-23T03:16:00;13.50;99.90
55777;DHT22;54079;44.540;18.784;2023-05-23T03:18:26;13.40;99.90
55777;DHT22;54079;44.540;18.784;2023-05-23T03:20:52;13.50;99.90
55777;DHT22;54079;44.540;18.784;2023-05-23T03:23:18;13.60;99.90
55777;DHT22;54079;44.540;18.784;2023-05-23T03:25:44;13.70;99.90
55777;DHT22;54079;44.540;18.784;2023-05-23T03:28:10;13.60;99.90
55777;DHT22;54079;44.540;18.784;2023-05-23T03:30:39;13.50;99.90
55777;DHT22;54079;44.540;18.784;2023-05-23T03:33:05;13.60;99.90
55777;DHT22;54079;44.540;18.784;2023-05-23T03:35:31;13.70;99.90
55777;DHT22;54079;44.540;18.784;2023-05-23T03:37:57;13.80;99.90
55777;DHT22;54079;44.540;18.784;2023-05-23T03:40:23;13.80;99.90
55777;DHT22;54079;44.540;18.784;2023-05-23T03:43:04;13.90;99.90
55777;DHT22;54079;44.540;18.784;2023-05-23T03:45:30;13.90;99.90
55777;DHT22;54079;44.540;18.784;2023-05-23T03:47:57;14.00;99.90
55777;DHT22;54079;44.540;18.784;2023-05-23T03:50:23;14.10;99.90
55777;DHT22;54079;44.540;18.784;2023-05-23T03:52:49;14.10;99.90
55777;DHT22;54079;44.540;18.784;2023-05-23T03:55:15;14.00;99.90
55777;DHT22;54079;44.540;18.784;2023-05-23T03:57:41;14.20;99.90
55777;DHT22;54079;44.540;18.784;2023-05-23T04:00:07;14.20;99.90
55777;DHT22;54079;44.540;18.784;2023-05-23T04:02:37;14.30;99.90
55777;DHT22;54079;44.540;18.784;2023-05-23T04:05:05;14.50;99.90
55777;DHT22;54079;44.540;18.784;2023-05-23T04:07:32;14.50;99.90
55777;DHT22;54079;44.540;18.784;2023-05-23T04:10:02;14.70;99.90
55777;DHT22;54079;44.540;18.784;2023-05-23T04:12:28;14.80;99.90
55777;DHT22;54079;44.540;18.784;2023-05-23T04:14:57;15.00;99.90
55777;DHT22;54079;44.540;18.784;2023-05-23T04:17:23;15.10;99.90
55777;DHT22;54079;44.540;18.784;2023-05-23T04:19:50;15.20;99.90
55777;DHT22;54079;44.540;18.784;2023-05-23T04:22:16;15.40;99.90
55777;DHT22;54079;44.540;18.784;2023-05-23T04:24:42;16.30;97.90
55777;DHT22;54079;44.540;18.784;2023-05-23T04:27:08;16.50;97.20
55777;DHT22;54079;44.540;18.784;2023-05-23T04:29:34;16.80;95.80
55777;DHT22;54079;44.540;18.784;2023-05-23T04:32:01;17.20;94.90
55777;DHT22;54079;44.540;18.784;2023-05-23T04:34:27;18.80;92.80
55777;DHT22;54079;44.540;18.784;2023-05-23T04:36:53;20.40;88.80
55777;DHT22;54079;44.540;18.784;2023-05-23T04:39:19;21.50;83.40
55777;DHT22;54079;44.540;18.784;2023-05-23T04:41:45;22.30;79.80
55777;DHT22;54079;44.540;18.784;2023-05-23T04:44:11;23.50;77.00
55777;DHT22;54079;44.540;18.784;2023-05-23T04:46:39;24.50;74.20
55777;DHT22;54079;44.540;18.784;2023-05-23T04:49:07;25.40;71.00
55777;DHT22;54079;44.540;18.784;2023-05-23T04:51:33;25.90;69.60
55777;DHT22;54079;44.540;18.784;2023-05-23T04:54:00;26.60;68.40
55777;DHT22;54079;44.540;18.784;2023-05-23T04:56:26;27.10;65.50
55777;DHT22;54079;44.540;18.784;2023-05-23T04:58:53;28.00;64.10
55777;DHT22;54079;44.540;18.784;2023-05-23T05:01:19;28.60;62.40
55777;DHT22;54079;44.540;18.784;2023-05-23T05:03:45;29.30;61.20
55777;DHT22;54079;44.540;18.784;2023-05-23T05:06:12;29.90;60.40
55777;DHT22;54079;44.540;18.784;2023-05-23T05:08:39;30.10;59.50
55777;DHT22;54079;44.540;18.784;2023-05-23T05:11:05;30.60;59.30
55777;DHT22;54079;44.540;18.784;2023-05-23T05:13:31;31.40;58.30
55777;DHT22;54079;44.540;18.784;2023-05-23T05:15:57;32.10;57.30
55777;DHT22;54079;44.540;18.784;2023-05-23T05:18:26;32.60;56.50
55777;DHT22;54079;44.540;18.784;2023-05-23T05:20:53;33.40;55.60
55777;DHT22;54079;44.540;18.784;2023-05-23T05:23:19;33.90;54.20
55777;DHT22;54079;44.540;18.784;2023-05-23T05:25:45;33.80;54.90
55777;DHT22;54079;44.540;18.784;2023-05-23T05:28:12;33.60;55.00
55777;DHT22;54079;44.540;18.784;2023-05-23T05:30:38;34.20;54.70
55777;DHT22;54079;44.540;18.784;2023-05-23T05:33:04;35.00;53.60
55777;DHT22;54079;44.540;18.784;2023-05-23T05:35:33;35.40;53.60
55777;DHT22;54079;44.540;18.784;2023-05-23T05:38:00;35.50;53.10
55777;DHT22;54079;44.540;18.784;2023-05-23T05:40:27;35.60;52.70
55777;DHT22;54079;44.540;18.784;2023-05-23T05:42:53;34.90;53.60
55777;DHT22;54079;44.540;18.784;2023-05-23T05:45:19;35.40;52.60
55777;DHT22;54079;44.540;18.784;2023-05-23T05:47:45;36.00;52.30
55777;DHT22;54079;44.540;18.784;2023-05-23T05:50:11;36.90;51.50
55777;DHT22;54079;44.540;18.784;2023-05-23T05:52:37;37.00;51.40
55777;DHT22;54079;44.540;18.784;2023-05-23T05:55:08;36.90;51.50
55777;DHT22;54079;44.540;18.784;2023-05-23T05:57:38;37.40;50.60
55777;DHT22;54079;44.540;18.784;2023-05-23T06:00:12;38.40;49.80
55777;DHT22;54079;44.540;18.784;2023-05-23T06:02:44;38.80;49.30
55777;DHT22;54079;44.540;18.784;2023-05-23T06:05:13;39.20;48.00
55777;DHT22;54079;44.540;18.784;2023-05-23T06:07:41;39.80;48.40
55777;DHT22;54079;44.540;18.784;2023-05-23T06:10:08;39.90;47.90
55777;DHT22;54079;44.540;18.784;2023-05-23T06:12:37;40.50;47.10
55777;DHT22;54079;44.540;18.784;2023-05-23T06:15:04;40.40;46.70
55777;DHT22;54079;44.540;18.784;2023-05-23T06:17:30;41.20;46.10
55777;DHT22;54079;44.540;18.784;2023-05-23T06:19:56;42.10;44.60
55777;DHT22;54079;44.540;18.784;2023-05-23T06:22:21;42.70;43.70
55777;DHT22;54079;44.540;18.784;2023-05-23T06:24:47;42.90;43.50
55777;DHT22;54079;44.540;18.784;2023-05-23T06:27:13;43.50;43.50
55777;DHT22;54079;44.540;18.784;2023-05-23T06:29:39;44.10;43.00
55777;DHT22;54079;44.540;18.784;2023-05-23T06:32:06;44.20;43.30
55777;DHT22;54079;44.540;18.784;2023-05-23T06:34:32;44.20;43.00
55777;DHT22;54079;44.540;18.784;2023-05-23T06:36:58;44.60;43.80
55777;DHT22;54079;44.540;18.784;2023-05-23T06:39:24;44.80;43.90
55777;DHT22;54079;44.540;18.784;2023-05-23T06:41:50;44.90;44.30
55777;DHT22;54079;44.540;18.784;2023-05-23T06:44:16;45.30;44.00
55777;DHT22;54079;44.540;18.784;2023-05-23T06:46:44;45.70;43.40
55777;DHT22;54079;44.540;18.784;2023-05-23T06:49:11;45.60;42.50
55777;DHT22;54079;44.540;18.784;2023-05-23T06:51:36;46.40;43.00
55777;DHT22;54079;44.540;18.784;2023-05-23T06:54:02;45.70;41.80
55777;DHT22;54079;44.540;18.784;2023-05-23T06:56:28;46.50;42.00
55777;DHT22;54079;44.540;18.784;2023-05-23T06:58:54;46.70;41.60
55777;DHT22;54079;44.540;18.784;2023-05-23T07:01:20;47.50;41.50
55777;DHT22;54079;44.540;18.784;2023-05-23T07:03:46;48.60;40.60
55777;DHT22;54079;44.540;18.784;2023-05-23T07:06:12;47.90;41.00
55777;DHT22;54079;44.540;18.784;2023-05-23T07:08:38;48.10;41.30
55777;DHT22;54079;44.540;18.784;2023-05-23T07:11:05;47.70;40.90
55777;DHT22;54079;44.540;18.784;2023-05-23T07:13:31;48.10;40.60
55777;DHT22;54079;44.540;18.784;2023-05-23T07:15:57;47.90;39.80
55777;DHT22;54079;44.540;18.784;2023-05-23T07:18:23;48.50;40.10
55777;DHT22;54079;44.540;18.784;2023-05-23T07:20:49;48.70;40.00
55777;DHT22;54079;44.540;18.784;2023-05-23T07:23:15;49.70;40.00
55777;DHT22;54079;44.540;18.784;2023-05-23T07:25:42;50.20;40.10
55777;DHT22;54079;44.540;18.784;2023-05-23T07:28:09;50.60;39.50
55777;DHT22;54079;44.540;18.784;2023-05-23T07:30:35;50.70;39.50
55777;DHT22;54079;44.540;18.784;2023-05-23T07:33:01;50.80;39.20
55777;DHT22;54079;44.540;18.784;2023-05-23T07:35:27;50.90;39.30
55777;DHT22;54079;44.540;18.784;2023-05-23T07:37:53;51.30;38.70
55777;DHT22;54079;44.540;18.784;2023-05-23T07:40:20;51.60;39.00
55777;DHT22;54079;44.540;18.784;2023-05-23T07:42:46;51.60;39.20
55777;DHT22;54079;44.540;18.784;2023-05-23T07:45:12;51.30;39.00
55777;DHT22;54079;44.540;18.784;2023-05-23T07:47:39;51.20;39.00
55777;DHT22;54079;44.540;18.784;2023-05-23T07:50:05;51.70;38.50
55777;DHT22;54079;44.540;18.784;2023-05-23T07:52:32;51.70;38.70
55777;DHT22;54079;44.540;18.784;2023-05-23T07:54:58;51.70;38.20
55777;DHT22;54079;44.540;18.784;2023-05-23T07:57:24;52.10;38.40
55777;DHT22;54079;44.540;18.784;2023-05-23T07:59:51;52.60;38.20
55777;DHT22;54079;44.540;18.784;2023-05-23T08:02:17;52.70;37.70
55777;DHT22;54079;44.540;18.784;2023-05-23T08:04:44;53.30;37.70
55777;DHT22;54079;44.540;18.784;2023-05-23T08:07:11;52.60;37.40
55777;DHT22;54079;44.540;18.784;2023-05-23T08:09:40;52.10;36.90
55777;DHT22;54079;44.540;18.784;2023-05-23T08:12:06;52.20;37.00
55777;DHT22;54079;44.540;18.784;2023-05-23T08:14:32;52.40;37.20
55777;DHT22;54079;44.540;18.784;2023-05-23T08:16:58;51.90;37.00
55777;DHT22;54079;44.540;18.784;2023-05-23T08:19:25;52.20;38.10
55777;DHT22;54079;44.540;18.784;2023-05-23T08:21:51;53.30;37.20
55777;DHT22;54079;44.540;18.784;2023-05-23T08:24:19;54.10;37.00
55777;DHT22;54079;44.540;18.784;2023-05-23T08:26:46;54.90;36.80
55777;DHT22;54079;44.540;18.784;2023-05-23T08:29:13;55.00;37.10
55777;DHT22;54079;44.540;18.784;2023-05-23T08:31:39;54.30;36.10
55777;DHT22;54079;44.540;18.784;2023-05-23T08:34:06;52.70;36.80
55777;DHT22;54079;44.540;18.784;2023-05-23T08:36:32;53.40;37.20
55777;DHT22;54079;44.540;18.784;2023-05-23T08:39:02;51.40;36.80
55777;DHT22;54079;44.540;18.784;2023-05-23T08:41:29;51.80;37.50
55777;DHT22;54079;44.540;18.784;2023-05-23T08:43:56;52.50;37.40
55777;DHT22;54079;44.540;18.784;2023-05-23T08:46:22;53.30;37.10
55777;DHT22;54079;44.540;18.784;2023-05-23T08:48:53;53.80;37.70
55777;DHT22;54079;44.540;18.784;2023-05-23T08:51:25;53.30;36.90
55777;DHT22;54079;44.540;18.784;2023-05-23T08:53:51;53.30;36.90
55777;DHT22;54079;44.540;18.784;2023-05-23T08:56:23;52.50;37.60
55777;DHT22;54079;44.540;18.784;2023-05-23T08:58:50;52.30;37.90
55777;DHT22;54079;44.540;18.784;2023-05-23T09:01:18;52.70;37.80
55777;DHT22;54079;44.540;18.784;2023-05-23T09:03:45;52.40;38.10
55777;DHT22;54079;44.540;18.784;2023-05-23T09:06:12;49.20;38.80
55777;DHT22;54079;44.540;18.784;2023-05-23T09:08:38;46.50;40.30
55777;DHT22;54079;44.540;18.784;2023-05-23T09:11:05;43.50;42.00
55777;DHT22;54079;44.540;18.784;2023-05-23T09:13:32;41.60;43.30
55777;DHT22;54079;44.540;18.784;2023-05-23T09:21:01;38.50;44.90
55777;DHT22;54079;44.540;18.784;2023-05-23T09:23:31;37.70;45.10
55777;DHT22;54079;44.540;18.784;2023-05-23T09:26:11;37.40;46.10
55777;DHT22;54079;44.540;18.784;2023-05-23T09:28:42;36.70;46.50
55777;DHT22;54079;44.540;18.784;2023-05-23T09:31:09;35.40;45.70
55777;DHT22;54079;44.540;18.784;2023-05-23T09:33:48;34.40;49.30
55777;DHT22;54079;44.540;18.784;2023-05-23T09:36:16;34.40;49.70
55777;DHT22;54079;44.540;18.784;2023-05-23T09:38:44;34.10;49.00
55777;DHT22;54079;44.540;18.784;2023-05-23T09:41:10;34.40;49.60
55777;DHT22;54079;44.540;18.784;2023-05-23T09:43:49;34.40;49.80
55777;DHT22;54079;44.540;18.784;2023-05-23T09:46:16;34.40;49.70
55777;DHT22;54079;44.540;18.784;2023-05-23T09:48:49;34.50;49.80
55777;DHT22;54079;44.540;18.784;2023-05-23T09:51:19;34.30;50.40
55777;DHT22;54079;44.540;18.784;2023-05-23T09:53:51;34.30;50.40
55777;DHT22;54079;44.540;18.784;2023-05-23T09:56:18;34.10;48.60
55777;DHT22;54079;44.540;18.784;2023-05-23T09:58:47;32.20;49.90
55777;DHT22;54079;44.540;18.784;2023-05-23T10:01:14;31.70;50.60
55777;DHT22;54079;44.540;18.784;2023-05-23T10:03:51;31.00;52.30
55777;DHT22;54079;44.540;18.784;2023-05-23T10:06:34;31.20;51.10
55777;DHT22;54079;44.540;18.784;2023-05-23T10:09:06;32.00;51.80
55777;DHT22;54079;44.540;18.784;2023-05-23T10:14:05;31.30;50.50
55777;DHT22;54079;44.540;18.784;2023-05-23T10:16:40;31.40;53.10
55777;DHT22;54079;44.540;18.784;2023-05-23T10:19:34;31.40;54.70
55777;DHT22;54079;44.540;18.784;2023-05-23T10:22:05;31.30;53.80
55777;DHT22;54079;44.540;18.784;2023-05-23T10:24:32;31.00;54.80
55777;DHT22;54079;44.540;18.784;2023-05-23T10:26:59;31.10;53.10
55777;DHT22;54079;44.540;18.784;2023-05-23T10:29:26;30.70;53.70
55777;DHT22;54079;44.540;18.784;2023-05-23T10:31:52;30.50;54.60
55777;DHT22;54079;44.540;18.784;2023-05-23T10:42:47;31.40;51.50
55777;DHT22;54079;44.540;18.784;2023-05-23T10:45:16;31.10;52.40
55777;DHT22;54079;44.540;18.784;2023-05-23T10:47:42;30.90;52.80
55777;DHT22;54079;44.540;18.784;2023-05-23T10:50:12;30.70;51.00
55777;DHT22;54079;44.540;18.784;2023-05-23T10:52:40;31.00;51.50
55777;DHT22;54079;44.540;18.784;2023-05-23T10:55:14;31.00;52.60
55777;DHT22;54079;44.540;18.784;2023-05-23T10:57:43;31.00;53.70
55777;DHT22;54079;44.540;18.784;2023-05-23T11:00:13;31.20;53.70
55777;DHT22;54079;44.540;18.784;2023-05-23T11:02:51;30.80;51.80
55777;DHT22;54079;44.540;18.784;2023-05-23T11:05:23;30.90;52.10
55777;DHT22;54079;44.540;18.784;2023-05-23T11:08:11;30.30;52.50
55777;DHT22;54079;44.540;18.784;2023-05-23T11:11:02;30.60;55.10
55777;DHT22;54079;44.540;18.784;2023-05-23T11:16:30;30.10;54.00
55777;DHT22;54079;44.540;18.784;2023-05-23T11:21:47;30.50;55.00
55777;DHT22;54079;44.540;18.784;2023-05-23T11:24:13;30.60;54.50
55777;DHT22;54079;44.540;18.784;2023-05-23T11:26:39;30.10;54.80
55777;DHT22;54079;44.540;18.784;2023-05-23T11:29:16;30.00;55.50
55777;DHT22;54079;44.540;18.784;2023-05-23T11:31:42;29.80;56.30
55777;DHT22;54079;44.540;18.784;2023-05-23T11:34:08;29.60;53.70
55777;DHT22;54079;44.540;18.784;2023-05-23T11:36:35;29.30;54.40
55777;DHT22;54079;44.540;18.784;2023-05-23T11:39:02;29.80;53.50
55777;DHT22;54079;44.540;18.784;2023-05-23T11:41:29;29.30;51.00
55777;DHT22;54079;44.540;18.784;2023-05-23T11:43:55;29.20;52.60
55777;DHT22;54079;44.540;18.784;2023-05-23T11:46:21;29.70;54.60
55777;DHT22;54079;44.540;18.784;2023-05-23T11:48:47;30.20;54.60
55777;DHT22;54079;44.540;18.784;2023-05-23T11:51:14;30.20;54.30
55777;DHT22;54079;44.540;18.784;2023-05-23T11:53:41;29.90;53.40
55777;DHT22;54079;44.540;18.784;2023-05-23T11:56:07;29.70;54.50
55777;DHT22;54079;44.540;18.784;2023-05-23T11:58:35;29.30;55.40
55777;DHT22;54079;44.540;18.784;2023-05-23T12:01:08;29.10;55.60
55777;DHT22;54079;44.540;18.784;2023-05-23T12:03:45;29.00;53.80
55777;DHT22;54079;44.540;18.784;2023-05-23T12:06:14;29.10;53.60
55777;DHT22;54079;44.540;18.784;2023-05-23T12:08:40;29.20;54.60
55777;DHT22;54079;44.540;18.784;2023-05-23T12:11:06;28.90;55.90
55777;DHT22;54079;44.540;18.784;2023-05-23T12:13:32;28.40;55.10
55777;DHT22;54079;44.540;18.784;2023-05-23T12:16:00;28.50;56.20
55777;DHT22;54079;44.540;18.784;2023-05-23T12:18:28;28.50;56.50
55777;DHT22;54079;44.540;18.784;2023-05-23T12:20:54;28.40;57.00
55777;DHT22;54079;44.540;18.784;2023-05-23T12:23:24;28.30;55.90
55777;DHT22;54079;44.540;18.784;2023-05-23T12:25:52;28.50;56.30
55777;DHT22;54079;44.540;18.784;2023-05-23T12:28:33;28.60;56.70
55777;DHT22;54079;44.540;18.784;2023-05-23T12:31:07;28.70;57.10
55777;DHT22;54079;44.540;18.784;2023-05-23T12:33:37;28.80;53.80
55777;DHT22;54079;44.540;18.784;2023-05-23T12:36:04;29.00;55.80
55777;DHT22;54079;44.540;18.784;2023-05-23T12:38:38;29.20;55.20
55777;DHT22;54079;44.540;18.784;2023-05-23T12:41:15;28.60;55.20
55777;DHT22;54079;44.540;18.784;2023-05-23T12:43:49;28.30;57.40
55777;DHT22;54079;44.540;18.784;2023-05-23T12:46:16;28.20;57.10
55777;DHT22;54079;44.540;18.784;2023-05-23T12:48:42;27.80;56.80
55777;DHT22;54079;44.540;18.784;2023-05-23T12:51:08;27.70;58.50
55777;DHT22;54079;44.540;18.784;2023-05-23T12:53:34;28.00;59.60
55777;DHT22;54079;44.540;18.784;2023-05-23T12:56:01;27.80;59.20
55777;DHT22;54079;44.540;18.784;2023-05-23T12:58:27;27.80;57.70
55777;DHT22;54079;44.540;18.784;2023-05-23T13:00:53;28.00;56.30
55777;DHT22;54079;44.540;18.784;2023-05-23T13:03:19;27.60;57.40
55777;DHT22;54079;44.540;18.784;2023-05-23T13:05:45;27.70;58.80
55777;DHT22;54079;44.540;18.784;2023-05-23T13:08:11;27.70;57.80
55777;DHT22;54079;44.540;18.784;2023-05-23T13:10:37;27.70;58.10
55777;DHT22;54079;44.540;18.784;2023-05-23T13:13:03;28.00;58.70
55777;DHT22;54079;44.540;18.784;2023-05-23T13:15:30;27.60;58.20
55777;DHT22;54079;44.540;18.784;2023-05-23T13:17:56;27.60;58.30
55777;DHT22;54079;44.540;18.784;2023-05-23T13:20:22;27.60;57.60
55777;DHT22;54079;44.540;18.784;2023-05-23T13:22:48;27.80;59.50
55777;DHT22;54079;44.540;18.784;2023-05-23T13:25:14;28.10;57.20
55777;DHT22;54079;44.540;18.784;2023-05-23T13:27:40;27.50;57.30
55777;DHT22;54079;44.540;18.784;2023-05-23T13:30:07;27.50;59.10
55777;DHT22;54079;44.540;18.784;2023-05-23T13:32:33;27.40;58.40
55777;DHT22;54079;44.540;18.784;2023-05-23T13:34:59;27.70;57.50
55777;DHT22;54079;44.540;18.784;2023-05-23T13:37:25;27.70;56.70
55777;DHT22;54079;44.540;18.784;2023-05-23T13:39:51;27.80;57.70
55777;DHT22;54079;44.540;18.784;2023-05-23T13:42:17;27.70;56.50
55777;DHT22;54079;44.540;18.784;2023-05-23T13:44:43;27.90;58.00
55777;DHT22;54079;44.540;18.784;2023-05-23T13:47:13;27.90;56.50
55777;DHT22;54079;44.540;18.784;2023-05-23T13:49:41;27.90;55.30
55777;DHT22;54079;44.540;18.784;2023-05-23T13:52:07;27.90;56.90
55777;DHT22;54079;44.540;18.784;2023-05-23T13:54:33;27.70;56.10
55777;DHT22;54079;44.540;18.784;2023-05-23T13:57:00;27.60;57.50
55777;DHT22;54079;44.540;18.784;2023-05-23T13:59:26;27.50;56.00
55777;DHT22;54079;44.540;18.784;2023-05-23T14:01:52;27.40;56.70
55777;DHT22;54079;44.540;18.784;2023-05-23T14:04:18;27.20;56.60
55777;DHT22;54079;44.540;18.784;2023-05-23T14:06:45;27.40;56.30
55777;DHT22;54079;44.540;18.784;2023-05-23T14:09:11;27.40;55.80
55777;DHT22;54079;44.540;18.784;2023-05-23T14:11:37;27.50;55.60
55777;DHT22;54079;44.540;18.784;2023-05-23T14:14:03;27.60;55.40
55777;DHT22;54079;44.540;18.784;2023-05-23T14:16:29;27.70;54.90
55777;DHT22;54079;44.540;18.784;2023-05-23T14:18:56;27.60;55.60
55777;DHT22;54079;44.540;18.784;2023-05-23T14:21:22;27.70;55.80
55777;DHT22;54079;44.540;18.784;2023-05-23T14:23:48;28.00;57.10
55777;DHT22;54079;44.540;18.784;2023-05-23T14:26:14;28.00;56.90
55777;DHT22;54079;44.540;18.784;2023-05-23T14:28:40;27.60;56.40
55777;DHT22;54079;44.540;18.784;2023-05-23T14:31:06;27.80;56.80
55777;DHT22;54079;44.540;18.784;2023-05-23T14:33:32;27.70;57.20
55777;DHT22;54079;44.540;18.784;2023-05-23T14:35:59;27.60;54.70
55777;DHT22;54079;44.540;18.784;2023-05-23T14:38:26;27.60;56.30
55777;DHT22;54079;44.540;18.784;2023-05-23T14:40:52;27.60;56.00
55777;DHT22;54079;44.540;18.784;2023-05-23T14:43:19;27.70;56.10
55777;DHT22;54079;44.540;18.784;2023-05-23T14:45:45;27.90;57.10
55777;DHT22;54079;44.540;18.784;2023-05-23T14:48:11;27.90;55.60
55777;DHT22;54079;44.540;18.784;2023-05-23T14:50:37;27.60;53.50
55777;DHT22;54079;44.540;18.784;2023-05-23T14:53:03;27.60;53.70
55777;DHT22;54079;44.540;18.784;2023-05-23T14:55:29;27.50;54.10
55777;DHT22;54079;44.540;18.784;2023-05-23T14:57:55;27.50;54.10
55777;DHT22;54079;44.540;18.784;2023-05-23T15:00:22;27.50;53.40
55777;DHT22;54079;44.540;18.784;2023-05-23T15:02:49;27.40;54.00
55777;DHT22;54079;44.540;18.784;2023-05-23T15:05:16;27.30;54.50
55777;DHT22;54079;44.540;18.784;2023-05-23T15:07:42;27.50;55.00
55777;DHT22;54079;44.540;18.784;2023-05-23T15:10:11;27.60;55.70
55777;DHT22;54079;44.540;18.784;2023-05-23T15:12:37;27.60;55.50
55777;DHT22;54079;44.540;18.784;2023-05-23T15:15:04;27.40;55.90
55777;DHT22;54079;44.540;18.784;2023-05-23T15:17:31;27.40;56.20
55777;DHT22;54079;44.540;18.784;2023-05-23T15:19:58;27.30;55.40
55777;DHT22;54079;44.540;18.784;2023-05-23T15:22:24;27.30;55.30
55777;DHT22;54079;44.540;18.784;2023-05-23T15:24:50;26.90;55.70
55777;DHT22;54079;44.540;18.784;2023-05-23T15:27:17;26.80;56.50
55777;DHT22;54079;44.540;18.784;2023-05-23T15:29:44;26.50;56.60
55777;DHT22;54079;44.540;18.784;2023-05-23T15:32:10;26.70;56.70
55777;DHT22;54079;44.540;18.784;2023-05-23T15:34:36;26.70;56.40
55777;DHT22;54079;44.540;18.784;2023-05-23T15:37:02;26.70;56.50
55777;DHT22;54079;44.540;18.784;2023-05-23T15:39:28;26.70;56.40
55777;DHT22;54079;44.540;18.784;2023-05-23T15:41:54;26.60;58.40
55777;DHT22;54079;44.540;18.784;2023-05-23T15:44:20;26.70;57.40